createdAt,value
2023-03-16T00:02:26.397Z,101147.19
2023-03-16T00:04:55.491Z,101145.41
2023-03-16T00:07:23.240Z,101142.06
2023-03-16T00:09:50.960Z,101137.31
2023-03-16T00:12:20.224Z,101130.03
2023-03-16T00:14:49.559Z,101136.06
2023-03-16T00:17:19.918Z,101136.25
2023-03-16T00:19:54.914Z,101139.59
2023-03-16T00:22:24.310Z,101132.47
2023-03-16T00:24:52.613Z,101137.22
2023-03-16T00:27:22.693Z,101136.31
2023-03-16T00:29:55.522Z,101153.50
2023-03-16T00:32:25.576Z,101149.69
2023-03-16T00:34:54.804Z,101136.94
2023-03-16T00:37:23.621Z,101142.25
2023-03-16T00:39:51.639Z,101143.75
2023-03-16T00:42:20.928Z,101143.03
2023-03-16T00:44:48.631Z,101154.03
2023-03-16T00:47:16.304Z,101148.97
2023-03-16T00:49:45.560Z,101145.56
2023-03-16T00:52:15.660Z,101143.84
2023-03-16T00:54:46.892Z,101135.50
2023-03-16T00:57:18.883Z,101131.13
2023-03-16T00:59:47.164Z,101116.09
2023-03-16T01:02:16.071Z,101112.09
2023-03-16T01:04:44.810Z,101124.28
2023-03-16T01:07:15.583Z,101104.78
2023-03-16T01:09:43.926Z,101108.75
2023-03-16T01:12:13.533Z,101112.41
2023-03-16T01:14:41.650Z,101103.88
2023-03-16T01:17:10.358Z,101092.09
2023-03-16T01:19:38.810Z,101100.31
2023-03-16T01:22:07.615Z,101091.75
2023-03-16T01:24:37.103Z,101081.94
2023-03-16T01:27:05.469Z,101086.00
2023-03-16T01:29:33.393Z,101079.19
2023-03-16T01:32:01.414Z,101078.47
2023-03-16T01:34:29.240Z,101068.84
2023-03-16T01:36:57.463Z,101068.06
2023-03-16T01:39:25.135Z,101066.97
2023-03-16T01:41:54.223Z,101063.75
2023-03-16T01:44:24.440Z,101063.00
2023-03-16T01:46:52.143Z,101066.59
2023-03-16T01:49:21.518Z,101058.63
2023-03-16T01:51:51.914Z,101066.16
2023-03-16T01:54:25.152Z,101058.94
2023-03-16T01:57:00.703Z,101065.84
2023-03-16T01:59:31.514Z,101057.69
2023-03-16T02:01:59.499Z,101057.94
2023-03-16T02:04:37.443Z,101061.72
2023-03-16T02:07:06.700Z,101060.25
2023-03-16T02:09:34.896Z,101058.50
2023-03-16T02:12:04.102Z,101048.94
2023-03-16T02:14:31.891Z,101051.50
2023-03-16T02:16:59.572Z,101047.03
2023-03-16T02:19:36.242Z,101039.81
2023-03-16T02:22:06.368Z,101031.28
2023-03-16T02:24:34.183Z,101029.72
2023-03-16T02:27:05.943Z,101025.53
2023-03-16T02:29:57.617Z,101015.47
2023-03-16T02:32:27.629Z,101005.31
2023-03-16T02:34:56.179Z,101009.50
2023-03-16T02:37:23.902Z,101017.75
2023-03-16T02:39:51.516Z,101018.44
2023-03-16T02:42:22.112Z,101013.06
2023-03-16T02:44:52.044Z,101015.22
2023-03-16T02:47:28.443Z,101002.91
2023-03-16T02:49:56.124Z,101002.91
2023-03-16T02:52:23.859Z,101005.09
2023-03-16T02:54:51.513Z,101001.84
2023-03-16T02:57:19.540Z,100990.97
2023-03-16T02:59:47.214Z,100992.16
2023-03-16T03:02:14.868Z,100993.50
2023-03-16T03:04:46.304Z,100991.88
2023-03-16T03:07:14.370Z,100997.25
2023-03-16T03:09:43.137Z,100988.06
2023-03-16T03:12:11.582Z,100996.63
2023-03-16T03:14:39.281Z,100996.91
2023-03-16T03:17:07.384Z,100985.59
2023-03-16T03:19:35.120Z,100986.25
2023-03-16T03:22:06.389Z,100976.28
2023-03-16T03:24:35.432Z,100973.59
2023-03-16T03:27:05.805Z,100970.34
2023-03-16T03:29:35.230Z,100972.25
2023-03-16T03:32:03.290Z,100972.75
2023-03-16T03:34:31.660Z,100976.28
2023-03-16T03:36:59.696Z,100968.94
2023-03-16T03:39:28.685Z,100970.09
2023-03-16T03:41:56.388Z,100966.09
2023-03-16T03:44:24.324Z,100969.72
2023-03-16T03:46:52.634Z,100960.38
2023-03-16T03:49:20.686Z,100960.28
2023-03-16T03:51:48.496Z,100953.31
2023-03-16T03:54:16.194Z,100959.31
2023-03-16T03:56:45.186Z,100960.50
2023-03-16T03:59:12.926Z,100951.31
2023-03-16T04:01:40.614Z,100946.50
2023-03-16T04:04:08.312Z,100932.28
2023-03-16T04:06:36.025Z,100931.06
2023-03-16T04:09:04.086Z,100931.56
2023-03-16T04:11:31.779Z,100937.59
2023-03-16T04:14:00.909Z,100933.38
2023-03-16T04:16:28.657Z,100940.41
2023-03-16T04:18:56.412Z,100938.50
2023-03-16T04:21:24.295Z,100938.28
2023-03-16T04:23:54.296Z,100940.31
2023-03-16T04:26:22.348Z,100929.19
2023-03-16T04:28:50.064Z,100931.44
2023-03-16T04:31:19.213Z,100930.16
2023-03-16T04:33:47.080Z,100930.25
2023-03-16T04:36:14.971Z,100930.69
2023-03-16T04:38:43.095Z,100926.22
2023-03-16T04:41:11.319Z,100909.22
2023-03-16T04:43:38.973Z,100900.66
2023-03-16T04:46:07.989Z,100883.88
2023-03-16T04:48:37.514Z,100896.13
2023-03-16T04:51:06.591Z,100901.72
2023-03-16T04:53:34.348Z,100893.06
2023-03-16T04:56:02.303Z,100888.91
2023-03-16T04:58:29.947Z,100895.44
2023-03-16T05:00:57.634Z,100898.75
2023-03-16T05:03:25.603Z,100894.88
2023-03-16T05:05:54.728Z,100903.16
2023-03-16T05:08:22.455Z,100908.34
2023-03-16T05:10:50.175Z,100900.97
2023-03-16T05:13:17.885Z,100898.75
2023-03-16T05:15:45.604Z,100906.75
2023-03-16T05:18:13.270Z,100902.63
2023-03-16T05:20:41.240Z,100898.22
2023-03-16T05:23:11.794Z,100894.78
2023-03-16T05:25:40.428Z,100894.84
2023-03-16T05:28:08.366Z,100881.00
2023-03-16T05:30:36.905Z,100887.63
2023-03-16T05:33:04.740Z,100885.44
2023-03-16T05:35:32.534Z,100895.44
2023-03-16T05:38:00.241Z,100896.38
2023-03-16T05:40:29.650Z,100900.88
2023-03-16T05:43:00.308Z,100886.34
2023-03-16T05:45:28.886Z,100891.03
2023-03-16T05:47:56.667Z,100894.56
2023-03-16T05:50:24.872Z,100897.94
2023-03-16T05:52:52.573Z,100896.63
2023-03-16T05:55:20.359Z,100887.19
2023-03-16T05:57:49.358Z,100895.00
2023-03-16T06:00:19.119Z,100882.91
2023-03-16T06:02:48.322Z,100899.88
2023-03-16T06:05:17.165Z,100885.59
2023-03-16T06:07:45.064Z,100890.13
2023-03-16T06:10:13.415Z,100888.63
2023-03-16T06:12:41.996Z,100902.41
2023-03-16T06:15:12.230Z,100906.34
2023-03-16T06:17:41.375Z,100887.63
2023-03-16T06:20:11.443Z,100903.50
2023-03-16T06:22:39.654Z,100903.97
2023-03-16T06:25:08.343Z,100892.69
2023-03-16T06:27:36.024Z,100903.00
2023-03-16T06:30:03.956Z,100891.34
2023-03-16T06:32:33.106Z,100890.31
2023-03-16T06:35:02.233Z,100888.38
2023-03-16T06:37:30.035Z,100883.34
2023-03-16T06:39:57.813Z,100887.22
2023-03-16T06:42:25.498Z,100883.47
2023-03-16T06:44:53.362Z,100883.00
2023-03-16T06:47:21.589Z,100889.00
2023-03-16T06:49:51.851Z,100891.94
2023-03-16T06:52:19.602Z,100895.41
2023-03-16T06:54:47.303Z,100892.63
2023-03-16T06:57:15.233Z,100886.53
2023-03-16T06:59:42.931Z,100892.66
2023-03-16T07:02:11.976Z,100892.25
2023-03-16T07:04:39.819Z,100883.03
2023-03-16T07:07:09.309Z,100888.25
2023-03-16T07:09:39.598Z,100888.25
2023-03-16T07:12:09.414Z,100890.09
2023-03-16T07:14:37.472Z,100882.91
2023-03-16T07:17:05.315Z,100876.06
2023-03-16T07:19:33.191Z,100875.69
2023-03-16T07:22:02.702Z,100885.59
2023-03-16T07:24:32.726Z,100888.16
2023-03-16T07:27:00.498Z,100898.38
2023-03-16T07:29:28.232Z,100900.34
2023-03-16T07:31:56.292Z,100889.84
2023-03-16T07:34:24.048Z,100898.50
2023-03-16T07:36:52.755Z,100896.94
2023-03-16T07:39:21.549Z,100902.13
2023-03-16T07:41:51.355Z,100906.66
2023-03-16T07:44:19.032Z,100905.00
2023-03-16T07:46:46.691Z,100902.97
2023-03-16T07:49:14.450Z,100908.22
2023-03-16T07:51:42.152Z,100896.44
2023-03-16T07:54:09.897Z,100913.84
2023-03-16T07:56:48.415Z,100912.56
2023-03-16T07:59:20.775Z,100904.41
2023-03-16T08:01:48.906Z,100908.72
2023-03-16T08:04:16.645Z,100912.41
2023-03-16T08:06:44.367Z,100900.38
2023-03-16T08:09:12.216Z,100906.69
2023-03-16T08:11:40.059Z,100901.31
2023-03-16T08:14:07.780Z,100891.94
2023-03-16T08:16:37.498Z,100892.41
2023-03-16T08:19:05.365Z,100895.19
2023-03-16T08:21:33.056Z,100903.88
2023-03-16T08:24:01.700Z,100909.13
2023-03-16T08:26:29.565Z,100912.22
2023-03-16T08:28:58.783Z,100910.09
2023-03-16T08:31:26.608Z,100911.97
2023-03-16T08:33:56.063Z,100920.63
2023-03-16T08:36:24.192Z,100918.19
2023-03-16T08:39:05.923Z,100916.94
2023-03-16T08:41:34.637Z,100911.25
2023-03-16T08:44:03.288Z,100914.16
2023-03-16T08:46:31.749Z,100905.97
2023-03-16T08:49:01.187Z,100911.22
2023-03-16T08:51:29.624Z,100906.25
2023-03-16T08:53:57.304Z,100913.38
2023-03-16T08:56:25.042Z,100906.56
2023-03-16T08:58:53.060Z,100901.72
2023-03-16T09:01:20.864Z,100904.84
2023-03-16T09:03:48.680Z,100909.34
2023-03-16T09:06:18.690Z,100903.22
2023-03-16T09:08:47.780Z,100906.72
2023-03-16T09:11:17.229Z,100905.00
2023-03-16T09:13:46.005Z,100911.06
2023-03-16T09:16:15.763Z,100901.59
2023-03-16T09:18:43.935Z,100900.81
2023-03-16T09:21:13.257Z,100898.28
2023-03-16T09:23:43.108Z,100908.97
2023-03-16T09:26:12.584Z,100905.63
2023-03-16T09:28:42.163Z,100898.59
2023-03-16T09:31:11.766Z,100906.78
2023-03-16T09:33:39.953Z,100904.16
2023-03-16T09:36:07.783Z,100906.25
2023-03-16T09:38:35.699Z,100905.09
2023-03-16T09:41:09.521Z,100898.28
2023-03-16T09:43:47.153Z,100882.78
2023-03-16T09:46:17.768Z,100893.63
2023-03-16T09:48:45.583Z,100878.00
2023-03-16T09:51:20.036Z,100874.97
2023-03-16T09:53:48.265Z,100887.97
2023-03-16T09:56:21.681Z,100888.28
2023-03-16T09:58:49.328Z,100882.16
2023-03-16T10:01:24.173Z,100876.75
2023-03-16T10:04:06.646Z,100861.66
2023-03-16T10:06:34.888Z,100872.09
2023-03-16T10:09:08.400Z,100863.22
2023-03-16T10:11:39.682Z,100873.50
2023-03-16T10:14:17.614Z,100865.81
2023-03-16T10:16:48.585Z,100871.94
2023-03-16T10:19:19.451Z,100871.53
2023-03-16T10:21:48.301Z,100864.72
2023-03-16T10:24:25.330Z,100858.22
2023-03-16T10:27:00.024Z,100864.72
2023-03-16T10:29:29.257Z,100865.47
2023-03-16T10:32:01.423Z,100863.31
2023-03-16T10:34:30.608Z,100848.19
2023-03-16T10:36:58.388Z,100845.03
2023-03-16T10:39:26.504Z,100848.00
2023-03-16T10:42:00.409Z,100845.66
2023-03-16T10:44:29.910Z,100850.63
2023-03-16T10:47:03.419Z,100828.09
2023-03-16T10:49:39.414Z,100836.50
2023-03-16T10:52:12.948Z,100833.38
2023-03-16T10:54:41.663Z,100823.22
2023-03-16T10:57:22.666Z,100825.88
2023-03-16T10:59:52.147Z,100824.38
2023-03-16T11:02:23.105Z,100818.00
2023-03-16T11:04:50.959Z,100817.91
2023-03-16T11:07:20.045Z,100820.50
2023-03-16T11:09:48.313Z,100808.50
2023-03-16T11:12:24.180Z,100794.34
2023-03-16T11:14:51.937Z,100795.56
2023-03-16T11:17:23.767Z,100806.13
2023-03-16T11:19:54.509Z,100789.84
2023-03-16T11:22:24.285Z,100783.88
2023-03-16T11:24:55.564Z,100781.56
2023-03-16T11:27:27.883Z,100793.34
2023-03-16T11:30:05.669Z,100787.03
2023-03-16T11:32:36.143Z,100780.16
2023-03-16T11:35:08.828Z,100782.25
2023-03-16T11:37:48.509Z,100791.03
2023-03-16T11:40:26.580Z,100778.78
2023-03-16T11:43:02.892Z,100791.13
2023-03-16T11:45:35.317Z,100772.16
2023-03-16T11:48:14.609Z,100786.84
2023-03-16T11:50:52.697Z,100778.16
2023-03-16T11:53:30.915Z,100778.94
2023-03-16T11:56:06.552Z,100786.03
2023-03-16T11:58:46.341Z,100779.91
2023-03-16T12:01:19.677Z,100758.81
2023-03-16T12:04:21.112Z,100740.25
2023-03-16T12:07:00.947Z,100750.84
2023-03-16T12:09:52.280Z,100749.88
2023-03-16T12:12:30.686Z,100737.50
2023-03-16T12:15:11.222Z,100739.88
2023-03-16T12:17:39.199Z,100725.66
2023-03-16T12:20:15.316Z,100718.28
2023-03-16T12:22:45.077Z,100712.97
2023-03-16T12:25:17.148Z,100710.91
2023-03-16T12:27:45.000Z,100689.38
2023-03-16T12:30:28.474Z,100698.47
2023-03-16T12:33:02.145Z,100698.13
2023-03-16T12:35:38.767Z,100687.78
2023-03-16T12:38:24.191Z,100681.94
2023-03-16T12:41:00.018Z,100685.69
2023-03-16T12:43:37.013Z,100688.50
2023-03-16T12:46:09.469Z,100665.34
2023-03-16T12:48:39.813Z,100662.31
2023-03-16T12:51:07.575Z,100658.50
2023-03-16T12:53:46.877Z,100673.00
2023-03-16T12:56:16.384Z,100672.38
2023-03-16T12:58:45.621Z,100676.41
2023-03-16T13:01:16.983Z,100652.88
2023-03-16T13:03:45.494Z,100649.53
2023-03-16T13:06:22.410Z,100658.28
2023-03-16T13:08:53.991Z,100644.97
2023-03-16T13:11:21.689Z,100647.16
2023-03-16T13:13:52.571Z,100648.91
2023-03-16T13:16:29.636Z,100639.38
2023-03-16T13:18:57.978Z,100640.31
2023-03-16T13:21:37.174Z,100644.94
2023-03-16T13:24:22.941Z,100642.53
2023-03-16T13:26:52.185Z,100634.47
2023-03-16T13:29:25.847Z,100632.66
2023-03-16T13:31:56.378Z,100631.00
2023-03-16T13:34:27.565Z,100646.56
2023-03-16T13:36:57.974Z,100645.09
2023-03-16T13:39:28.432Z,100645.25
2023-03-16T13:41:59.538Z,100630.50
2023-03-16T13:44:28.362Z,100631.84
2023-03-16T13:46:57.613Z,100610.69
2023-03-16T13:49:25.379Z,100610.75
2023-03-16T13:51:53.740Z,100597.41
2023-03-16T13:54:26.151Z,100596.22
2023-03-16T13:56:54.423Z,100592.94
2023-03-16T13:59:23.111Z,100594.00
2023-03-16T14:01:59.832Z,100592.34
2023-03-16T14:04:30.095Z,100574.59
2023-03-16T14:06:59.324Z,100555.75
2023-03-16T14:09:28.751Z,100544.78
2023-03-16T14:11:57.646Z,100555.63
2023-03-16T14:14:31.949Z,100549.81
2023-03-16T14:17:06.718Z,100546.16
2023-03-16T14:19:42.498Z,100529.72
2023-03-16T14:22:18.544Z,100532.44
2023-03-16T14:24:47.996Z,100531.88
2023-03-16T14:27:21.847Z,100524.91
2023-03-16T14:29:55.719Z,100521.06
2023-03-16T14:32:28.568Z,100511.84
2023-03-16T14:35:13.924Z,100515.97
2023-03-16T14:37:42.383Z,100520.59
2023-03-16T14:40:24.354Z,100532.16
2023-03-16T14:42:53.425Z,100520.78
2023-03-16T14:45:22.094Z,100518.44
2023-03-16T14:47:53.622Z,100510.78
2023-03-16T14:50:25.156Z,100513.69
2023-03-16T14:52:55.832Z,100509.50
2023-03-16T14:55:24.820Z,100496.03
2023-03-16T14:57:53.296Z,100502.28
2023-03-16T15:00:22.875Z,100489.44
2023-03-16T15:02:58.639Z,100490.19
2023-03-16T15:05:36.626Z,100480.59
2023-03-16T15:08:05.324Z,100477.63
2023-03-16T15:10:34.394Z,100484.09
2023-03-16T15:13:14.064Z,100477.09
2023-03-16T15:15:42.924Z,100477.00
2023-03-16T15:18:12.056Z,100458.16
2023-03-16T15:20:42.079Z,100458.22
2023-03-16T15:23:13.540Z,100471.69
2023-03-16T15:25:42.160Z,100453.19
2023-03-16T15:28:15.743Z,100454.50
2023-03-16T15:30:44.619Z,100444.19
2023-03-16T15:33:14.077Z,100441.94
2023-03-16T15:35:42.626Z,100445.19
2023-03-16T15:38:15.927Z,100450.50
2023-03-16T15:40:45.641Z,100439.47
2023-03-16T15:43:13.828Z,100443.09
2023-03-16T15:45:41.739Z,100439.66
2023-03-16T15:48:11.029Z,100442.22
2023-03-16T15:50:41.909Z,100422.06
2023-03-16T15:53:29.297Z,100424.56
2023-03-16T15:56:02.901Z,100432.19
2023-03-16T15:58:31.635Z,100431.00
2023-03-16T16:01:00.584Z,100411.63
2023-03-16T16:03:28.841Z,100407.63
2023-03-16T16:05:58.175Z,100407.25
2023-03-16T16:08:25.869Z,100408.00
2023-03-16T16:10:53.844Z,100388.78
2023-03-16T16:13:26.754Z,100393.44
2023-03-16T16:15:57.675Z,100391.78
2023-03-16T16:18:31.859Z,100395.91
2023-03-16T16:21:02.924Z,100394.03
2023-03-16T16:23:31.180Z,100391.75
2023-03-16T16:26:01.374Z,100378.28
2023-03-16T16:28:32.549Z,100396.13
2023-03-16T16:31:01.932Z,100391.78
2023-03-16T16:33:31.495Z,100397.03
2023-03-16T16:36:01.994Z,100393.03
2023-03-16T16:38:30.336Z,100389.25
2023-03-16T16:40:59.000Z,100381.81
2023-03-16T16:43:32.489Z,100386.66
2023-03-16T16:46:00.902Z,100388.78
2023-03-16T16:48:32.920Z,100389.84
2023-03-16T16:51:02.334Z,100386.16
2023-03-16T16:53:30.686Z,100376.75
2023-03-16T16:55:58.506Z,100378.31
2023-03-16T16:58:26.422Z,100372.09
2023-03-16T17:00:56.317Z,100380.44
2023-03-16T17:03:25.625Z,100377.50
2023-03-16T17:05:53.904Z,100381.19
2023-03-16T17:08:23.593Z,100381.22
2023-03-16T17:10:52.312Z,100385.00
2023-03-16T17:13:26.693Z,100391.16
2023-03-16T17:15:54.978Z,100392.22
2023-03-16T17:18:23.081Z,100389.63
2023-03-16T17:20:52.250Z,100381.19
2023-03-16T17:23:28.123Z,100390.88
2023-03-16T17:25:56.494Z,100378.78
2023-03-16T17:28:26.090Z,100383.22
2023-03-16T17:30:53.859Z,100380.78
2023-03-16T17:33:21.614Z,100375.72
2023-03-16T17:35:49.538Z,100380.88
2023-03-16T17:38:19.459Z,100376.88
2023-03-16T17:40:48.716Z,100379.16
2023-03-16T17:43:17.806Z,100373.75
2023-03-16T17:45:46.715Z,100379.06
2023-03-16T17:48:16.540Z,100374.88
2023-03-16T17:50:46.095Z,100381.75
2023-03-16T17:53:13.898Z,100383.00
2023-03-16T17:55:42.236Z,100390.81
2023-03-16T17:58:23.355Z,100379.13
2023-03-16T18:00:51.021Z,100370.41
2023-03-16T18:03:18.761Z,100375.19
2023-03-16T18:05:46.760Z,100374.78
2023-03-16T18:08:17.257Z,100366.25
2023-03-16T18:10:45.554Z,100369.94
2023-03-16T18:13:20.774Z,100372.56
2023-03-16T18:15:49.258Z,100378.69
2023-03-16T18:18:21.481Z,100381.06
2023-03-16T18:20:50.763Z,100367.31
2023-03-16T18:23:20.950Z,100371.19
2023-03-16T18:25:50.030Z,100367.41
2023-03-16T18:28:19.808Z,100367.09
2023-03-16T18:30:49.006Z,100373.03
2023-03-16T18:33:23.520Z,100370.09
2023-03-16T18:35:51.764Z,100362.97
2023-03-16T18:38:25.373Z,100351.00
2023-03-16T18:40:53.159Z,100350.56
2023-03-16T18:43:22.265Z,100354.16
2023-03-16T18:45:50.628Z,100351.09
2023-03-16T18:48:23.323Z,100351.66
2023-03-16T18:50:51.388Z,100345.06
2023-03-16T18:53:19.896Z,100347.72
2023-03-16T18:55:47.984Z,100356.00
2023-03-16T18:58:17.756Z,100355.81
2023-03-16T19:00:51.635Z,100346.19
2023-03-16T19:03:25.830Z,100334.06
2023-03-16T19:05:54.259Z,100337.00
2023-03-16T19:08:22.605Z,100340.16
2023-03-16T19:10:52.872Z,100327.00
2023-03-16T19:13:22.549Z,100322.00
2023-03-16T19:15:53.094Z,100325.88
2023-03-16T19:18:21.222Z,100321.47
2023-03-16T19:20:50.410Z,100325.50
2023-03-16T19:23:21.851Z,100323.06
2023-03-16T19:25:49.927Z,100322.31
2023-03-16T19:28:23.950Z,100325.53
2023-03-16T19:30:53.034Z,100328.72
2023-03-16T19:33:22.646Z,100330.03
2023-03-16T19:35:52.185Z,100330.69
2023-03-16T19:38:21.363Z,100334.00
2023-03-16T19:40:50.647Z,100331.25
2023-03-16T19:43:19.182Z,100329.28
2023-03-16T19:45:47.993Z,100323.44
2023-03-16T19:48:20.336Z,100322.41
2023-03-16T19:50:49.185Z,100332.09
2023-03-16T19:53:18.777Z,100316.63
2023-03-16T19:55:48.026Z,100306.06
2023-03-16T19:58:21.014Z,100301.94
2023-03-16T20:00:49.214Z,100299.28
2023-03-16T20:03:18.279Z,100303.53
2023-03-16T20:05:45.931Z,100284.06
2023-03-16T20:08:22.436Z,100295.41
2023-03-16T20:10:51.006Z,100290.44
2023-03-16T20:13:19.965Z,100272.56
2023-03-16T20:15:47.690Z,100261.00
2023-03-16T20:18:18.996Z,100260.34
2023-03-16T20:20:47.503Z,100276.03
2023-03-16T20:23:20.700Z,100279.50
2023-03-16T20:25:49.228Z,100269.84
2023-03-16T20:28:20.077Z,100273.69
2023-03-16T20:30:48.769Z,100280.63
2023-03-16T20:33:23.803Z,100275.72
2023-03-16T20:35:53.408Z,100267.16
2023-03-16T20:38:21.838Z,100271.97
2023-03-16T20:40:53.119Z,100271.97
2023-03-16T20:43:25.101Z,100264.06
2023-03-16T20:45:54.301Z,100269.13
2023-03-16T20:48:25.422Z,100270.44
2023-03-16T20:50:53.380Z,100251.22
2023-03-16T20:53:21.502Z,100255.66
2023-03-16T20:55:49.362Z,100269.50
2023-03-16T20:58:22.875Z,100264.06
2023-03-16T21:00:51.700Z,100273.47
2023-03-16T21:03:20.901Z,100259.81
2023-03-16T21:05:50.815Z,100262.53
2023-03-16T21:08:18.819Z,100263.81
2023-03-16T21:10:48.372Z,100261.31
2023-03-16T21:13:19.844Z,100267.06
2023-03-16T21:15:50.015Z,100265.53
2023-03-16T21:18:20.223Z,100251.25
2023-03-16T21:20:50.765Z,100250.03
2023-03-16T21:23:21.171Z,100236.38
2023-03-16T21:25:50.944Z,100226.88
2023-03-16T21:28:20.438Z,100227.50
2023-03-16T21:30:49.574Z,100225.59
2023-03-16T21:33:20.736Z,100233.66
2023-03-16T21:35:50.047Z,100229.63
2023-03-16T21:38:19.465Z,100232.28
2023-03-16T21:40:48.137Z,100223.94
2023-03-16T21:43:16.672Z,100223.69
2023-03-16T21:45:45.370Z,100241.56
2023-03-16T21:48:15.513Z,100224.69
2023-03-16T21:50:44.112Z,100226.88
2023-03-16T21:53:22.106Z,100226.69
2023-03-16T21:55:50.481Z,100221.94
2023-03-16T21:58:18.422Z,100219.50
2023-03-16T22:00:47.311Z,100201.28
2023-03-16T22:03:29.518Z,100216.97
2023-03-16T22:06:01.454Z,100217.47
2023-03-16T22:08:32.587Z,100211.50
2023-03-16T22:11:00.850Z,100204.09
2023-03-16T22:13:28.953Z,100191.59
2023-03-16T22:15:58.769Z,100200.84
2023-03-16T22:18:29.218Z,100205.91
2023-03-16T22:20:58.404Z,100201.69
2023-03-16T22:23:34.178Z,100189.72
2023-03-16T22:26:02.160Z,100191.94
2023-03-16T22:28:29.971Z,100192.09
2023-03-16T22:30:58.649Z,100192.09
2023-03-16T22:33:29.832Z,100192.31
2023-03-16T22:35:59.482Z,100194.16
2023-03-16T22:38:27.181Z,100183.69
2023-03-16T22:40:56.235Z,100194.19
2023-03-16T22:43:29.435Z,100182.34
2023-03-16T22:45:57.308Z,100180.34
2023-03-16T22:48:26.921Z,100190.69
2023-03-16T22:50:55.456Z,100191.16
2023-03-16T22:53:27.010Z,100193.97
2023-03-16T22:55:57.124Z,100184.13
2023-03-16T22:58:29.323Z,100175.09
2023-03-16T23:00:57.020Z,100188.66
2023-03-16T23:03:25.338Z,100182.47
2023-03-16T23:05:53.348Z,100179.66
2023-03-16T23:08:23.525Z,100178.41
2023-03-16T23:10:52.456Z,100164.69
2023-03-16T23:13:24.069Z,100166.66
2023-03-16T23:15:53.487Z,100173.44
2023-03-16T23:18:23.496Z,100176.44
2023-03-16T23:20:52.547Z,100169.69
2023-03-16T23:23:20.520Z,100168.00
2023-03-16T23:25:49.029Z,100145.59
2023-03-16T23:28:18.393Z,100166.88
2023-03-16T23:30:49.232Z,100166.22
2023-03-16T23:33:17.562Z,100184.53
2023-03-16T23:35:46.624Z,100183.97
2023-03-16T23:38:14.574Z,100181.81
2023-03-16T23:40:42.248Z,100182.00
2023-03-16T23:43:10.097Z,100168.94
2023-03-16T23:45:40.307Z,100173.44
2023-03-16T23:48:13.492Z,100173.72
2023-03-16T23:50:43.120Z,100165.91
2023-03-16T23:53:16.082Z,100185.66
2023-03-16T23:55:44.348Z,100164.38
2023-03-16T23:58:12.655Z,100170.84
